Waynesville, NC

6:56 AM EDT on March 30, 2017 (GMT -0400)
Historic Oak (Stone Gate) | | Change Station

Elev 3000 ft 35.60 °N, 83.03 °W | Updated 2 seconds ago

Partly Cloudy
Partly Cloudy
53.8 °F
Feels Like 53.8 °F
N
2.0
Wind Variable Wind from West

Today
High -- | Low -- °F
--% Chance of Precip.
Yesterday
High -- | Low -- °F
Precip. -- in
Pressure 30.02 in
Visibility 10.0 miles
Clouds Overcast 5000 ft
Dew Point 48 °F
Humidity 81%
Rainfall 0.00 in
Snow Depth Not available.
7:21 AM 7:52 PM
Waxing Crescent, 8% visible
METAR KAVL 300954Z AUTO 16004KT 10SM OVC050 13/09 A3007 RMK AO2 SLP165 T01280094
Pressure 30.02 in
Visibility 10.0 miles
Clouds Overcast 5000 ft
Dew Point 48 °F
Humidity 81%
Rainfall 0.00 in
Snow Depth Not available.
7:21 AM 7:52 PM
Waxing Crescent, 8% visible
METAR KAVL 300954Z AUTO 16004KT 10SM OVC050 13/09 A3007 RMK AO2 SLP165 T01280094

Get Severe Weather Alerts

Thanks for signing up!

Be on the lookout for a verification email in your inbox.

You'll start receiving the daily forecast at 8 AM.

×

10-Day Weather Forecast

Almanac

Astronomy

Mar. 30, 2017 Rise Set
Actual Time
Civil Twilight
Nautical Twilight
Astronomical Twilight
Moon
Length of Visible Light
Length of Day
Tomorrow will be .
, % of the Moon is Illuminated

Today's Extremes

State Highs State Lows

Community

WunderPhotos

Upload Photos

1,962,540 photos uploaded!

WunderBlog® & News

Nearby

Air Quality

  Air Quality AQ Index Pollutant
Not available.

Snow Depth

Station Depth Elevation

Earthquake Activity

City Distance Mag. Time & Date
Minimum magnitude displayed is 2.5.

Earthquake Activity

City Distance Mag. Time & Date
Minimum magnitude displayed is 2.5.

Coastal Water Temperatures

Place Temperature

Stations

Nearby Weather Stations

Station Location Temp. Windchill Dew Point Humidity Wind Precip. Elev Updated Type
                   

Watches & Warnings

There are currently no watches in effect.